createdAt,value
2022-11-24T00:02:35.367Z,3.67
2022-11-24T00:05:21.718Z,4.45
2022-11-24T00:08:07.325Z,5.30
2022-11-24T00:10:52.578Z,5.60
2022-11-24T00:13:40.838Z,5.18
2022-11-24T00:16:29.188Z,5.50
2022-11-24T00:19:19.433Z,4.90
2022-11-24T00:22:05.177Z,4.70
2022-11-24T00:24:50.715Z,3.95
2022-11-24T00:27:36.416Z,3.90
2022-11-24T00:30:22.098Z,4.38
2022-11-24T00:33:07.447Z,4.20
2022-11-24T00:36:01.178Z,3.20
2022-11-24T00:38:47.463Z,4.85
2022-11-24T00:41:33.615Z,4.63
2022-11-24T00:44:18.979Z,3.38
2022-11-24T00:47:04.527Z,3.92
2022-11-24T00:49:50.351Z,4.95
2022-11-24T00:52:35.644Z,4.97
2022-11-24T00:55:21.585Z,5.55
2022-11-24T00:58:07.245Z,7.13
2022-11-24T01:00:53.254Z,4.70
2022-11-24T01:03:40.224Z,5.10
2022-11-24T01:06:27.335Z,4.28
2022-11-24T01:09:12.799Z,3.60
2022-11-24T01:12:04.389Z,2.83
2022-11-24T01:14:50.257Z,2.63
2022-11-24T01:17:35.561Z,2.88
2022-11-24T01:20:21.060Z,3.88
2022-11-24T01:23:07.216Z,3.72
2022-11-24T01:25:53.127Z,3.35
2022-11-24T01:28:44.868Z,3.90
2022-11-24T01:31:33.011Z,4.53
2022-11-24T01:34:18.835Z,6.32
2022-11-24T01:37:04.945Z,5.05
2022-11-24T01:39:50.684Z,6.70
2022-11-24T01:42:53.237Z,6.80
2022-11-24T01:45:42.225Z,7.68
2022-11-24T01:48:32.927Z,5.20
2022-11-24T01:51:24.785Z,3.25
2022-11-24T01:54:22.415Z,3.50
2022-11-24T01:57:33.127Z,4.63
2022-11-24T02:00:18.901Z,4.13
2022-11-24T02:03:04.431Z,3.05
2022-11-24T02:05:54.635Z,2.78
2022-11-24T02:08:59.349Z,3.10
2022-11-24T02:11:47.081Z,2.53
2022-11-24T02:14:36.379Z,2.40
2022-11-24T02:17:22.517Z,2.80
2022-11-24T02:20:10.736Z,2.78
2022-11-24T02:23:40.621Z,4.13
2022-11-24T02:26:46.241Z,5.05
2022-11-24T02:29:31.806Z,6.13
2022-11-24T02:32:18.788Z,4.95
2022-11-24T02:35:06.461Z,5.60
2022-11-24T02:37:51.978Z,5.68
2022-11-24T02:40:37.506Z,6.63
2022-11-24T02:43:24.147Z,6.72
2022-11-24T02:46:10.951Z,6.93
2022-11-24T02:48:56.927Z,6.88
2022-11-24T02:51:42.654Z,8.40
2022-11-24T02:54:28.865Z,9.02
2022-11-24T02:57:15.284Z,7.07
2022-11-24T03:00:00.938Z,5.95
2022-11-24T03:02:46.367Z,4.80
2022-11-24T03:05:31.902Z,4.95
2022-11-24T03:08:17.659Z,4.18
2022-11-24T03:11:03.748Z,6.07
2022-11-24T03:13:50.201Z,6.38
2022-11-24T03:16:35.961Z,7.45
2022-11-24T03:19:21.404Z,6.35
2022-11-24T03:22:06.771Z,7.00
2022-11-24T03:24:52.327Z,6.65
2022-11-24T03:27:37.831Z,7.35
2022-11-24T03:30:23.192Z,10.85
2022-11-24T03:33:08.645Z,6.57
2022-11-24T03:35:54.156Z,6.20
2022-11-24T03:38:39.746Z,5.57
2022-11-24T03:41:25.090Z,5.45
2022-11-24T03:44:10.483Z,4.50
2022-11-24T03:46:55.925Z,4.72
2022-11-24T03:49:41.634Z,7.30
2022-11-24T03:52:27.395Z,7.32
2022-11-24T03:55:13.052Z,8.25
2022-11-24T03:57:58.526Z,6.90
2022-11-24T04:00:44.055Z,6.68
2022-11-24T04:03:29.613Z,5.90
2022-11-24T04:06:15.457Z,4.88
2022-11-24T04:09:01.050Z,4.82
2022-11-24T04:12:05.240Z,5.70
2022-11-24T04:14:50.812Z,6.78
2022-11-24T04:17:36.459Z,6.70
2022-11-24T04:20:22.771Z,6.75
2022-11-24T04:23:10.114Z,6.93
2022-11-24T04:25:55.687Z,6.40
2022-11-24T04:28:41.229Z,7.00
2022-11-24T04:31:26.902Z,7.38
2022-11-24T04:34:13.148Z,6.55
2022-11-24T04:36:58.996Z,6.60
2022-11-24T04:39:45.298Z,7.97
2022-11-24T04:42:30.823Z,6.75
2022-11-24T04:45:16.631Z,7.72
2022-11-24T04:48:02.672Z,7.95
2022-11-24T04:50:48.717Z,8.65
2022-11-24T04:53:34.571Z,8.30
2022-11-24T04:56:19.891Z,7.38
2022-11-24T04:59:08.429Z,7.03
2022-11-24T05:01:54.794Z,6.75
2022-11-24T05:04:40.619Z,5.85
2022-11-24T05:07:26.271Z,6.30
2022-11-24T05:10:30.483Z,5.00
2022-11-24T05:13:16.167Z,5.60
2022-11-24T05:16:02.302Z,5.85
2022-11-24T05:18:48.416Z,6.22
2022-11-24T05:21:35.001Z,5.20
2022-11-24T05:24:20.762Z,5.30
2022-11-24T05:27:06.220Z,6.00
2022-11-24T05:29:52.282Z,5.35
2022-11-24T05:32:37.728Z,6.13
2022-11-24T05:35:23.516Z,4.95
2022-11-24T05:38:09.283Z,5.10
2022-11-24T05:40:54.579Z,5.70
2022-11-24T05:43:39.939Z,5.32
2022-11-24T05:46:25.615Z,5.47
2022-11-24T05:49:11.616Z,5.47
2022-11-24T05:51:57.463Z,5.20
2022-11-24T05:54:42.935Z,6.40
2022-11-24T17:02:04.304Z,17.23
2022-11-24T17:04:52.368Z,12.65
2022-11-24T17:07:38.207Z,14.23
2022-11-24T17:10:23.528Z,12.07
2022-11-24T17:13:10.527Z,13.57
2022-11-24T17:15:56.557Z,13.10
2022-11-24T17:18:42.397Z,10.20
2022-11-24T17:21:28.571Z,10.00
2022-11-24T17:24:17.585Z,13.02
2022-11-24T17:27:03.234Z,10.88
2022-11-24T17:29:48.801Z,10.55
2022-11-24T17:32:34.149Z,10.80
2022-11-24T17:35:19.581Z,10.85
2022-11-24T17:38:05.111Z,8.38
2022-11-24T17:40:50.394Z,11.70
2022-11-24T17:43:36.255Z,11.15
2022-11-24T17:46:22.255Z,9.98
2022-11-24T17:49:13.293Z,8.88
2022-11-24T17:51:58.915Z,8.98
2022-11-24T17:54:46.709Z,9.40
2022-11-24T17:57:32.536Z,8.48
2022-11-24T18:00:18.755Z,9.18
2022-11-24T18:03:05.448Z,9.02
2022-11-24T18:05:51.647Z,7.50
2022-11-24T18:08:38.915Z,8.13
2022-11-24T18:11:31.830Z,8.13
2022-11-24T18:14:17.727Z,8.45
2022-11-24T18:17:04.303Z,8.57
2022-11-24T18:19:49.837Z,8.02
2022-11-24T18:25:52.599Z,8.23
2022-11-24T18:28:38.316Z,9.35
2022-11-24T18:31:23.766Z,10.40
2022-11-24T18:34:09.169Z,12.65
2022-11-24T18:36:55.705Z,14.73
2022-11-24T18:39:42.583Z,14.13
2022-11-24T18:42:31.390Z,13.38
2022-11-24T18:45:29.198Z,27.05
2022-11-24T18:48:16.513Z,30.40
2022-11-24T18:51:02.615Z,22.17
2022-11-24T18:53:54.406Z,20.92
2022-11-24T18:56:40.386Z,17.33
2022-11-24T18:59:33.705Z,17.20
2022-11-24T19:02:23.319Z,16.75
2022-11-24T19:05:09.488Z,17.73
2022-11-24T19:07:55.908Z,16.73
2022-11-24T19:10:41.808Z,22.00
2022-11-24T19:13:28.177Z,21.20
2022-11-24T19:16:14.309Z,17.10
2022-11-24T19:19:02.640Z,21.50
2022-11-24T19:21:48.663Z,17.08
2022-11-24T19:24:34.656Z,17.75
2022-11-24T19:27:22.494Z,18.90
2022-11-24T19:30:09.126Z,18.10
2022-11-24T19:32:56.657Z,15.88
2022-11-24T19:35:42.544Z,15.32
2022-11-24T19:38:30.231Z,14.73
2022-11-24T19:41:16.581Z,14.80
2022-11-24T19:44:02.942Z,16.35
2022-11-24T19:46:49.484Z,12.43
2022-11-24T19:49:36.135Z,14.85
2022-11-24T19:52:23.194Z,13.50
2022-11-24T19:55:09.102Z,13.88
2022-11-24T19:57:55.485Z,16.13
2022-11-24T20:00:41.297Z,17.17
2022-11-24T20:03:26.667Z,15.50
2022-11-24T20:06:14.540Z,17.00
2022-11-24T20:09:01.100Z,17.45
2022-11-24T20:11:48.744Z,23.25
2022-11-24T20:14:35.291Z,17.42
2022-11-24T20:17:21.026Z,17.90
2022-11-24T20:20:07.165Z,19.50
2022-11-24T20:22:52.927Z,17.80
2022-11-24T20:25:38.842Z,14.25
2022-11-24T20:28:24.314Z,13.25
2022-11-24T20:31:13.251Z,15.20
2022-11-24T20:34:04.378Z,16.73
2022-11-24T20:36:52.757Z,17.75
2022-11-24T20:39:40.536Z,16.02
2022-11-24T20:42:27.746Z,18.75
2022-11-24T20:45:13.727Z,17.38
2022-11-24T20:47:59.256Z,17.90
2022-11-24T20:50:51.152Z,18.77
2022-11-24T20:53:38.546Z,18.30
2022-11-24T20:56:27.004Z,15.88
2022-11-24T20:59:16.619Z,14.75
2022-11-24T21:02:03.780Z,15.57
2022-11-24T21:04:49.361Z,17.00
2022-11-24T21:07:34.860Z,15.65
2022-11-24T21:10:20.725Z,17.45
2022-11-24T21:13:06.115Z,22.92
2022-11-24T21:15:52.164Z,19.13
2022-11-24T21:18:37.674Z,19.83
2022-11-24T21:21:24.880Z,16.73
2022-11-24T21:24:13.131Z,17.65
2022-11-24T21:26:58.663Z,18.45
2022-11-24T21:29:43.972Z,23.80
2022-11-24T21:32:29.495Z,21.30
2022-11-24T21:35:15.264Z,19.80
2022-11-24T21:38:00.709Z,24.85
2022-11-24T21:40:50.183Z,15.38
2022-11-24T21:43:36.791Z,13.98
2022-11-24T21:46:22.738Z,14.23
2022-11-24T21:49:08.436Z,14.30
2022-11-24T21:51:55.873Z,14.52
2022-11-24T21:54:41.568Z,12.88
2022-11-24T21:57:28.391Z,13.40
2022-11-24T22:00:14.559Z,14.93
2022-11-24T22:03:00.253Z,15.38
2022-11-24T22:05:55.995Z,13.93
2022-11-24T22:08:41.414Z,15.10
2022-11-24T22:11:26.765Z,16.27
2022-11-24T22:14:12.516Z,19.98
2022-11-24T22:16:57.989Z,12.32
2022-11-24T22:19:43.294Z,15.50
2022-11-24T22:22:28.829Z,15.88
2022-11-24T22:25:14.242Z,13.55
2022-11-24T22:28:01.240Z,12.18
2022-11-24T22:30:51.161Z,12.35
2022-11-24T22:33:37.904Z,11.93
2022-11-24T22:36:25.597Z,12.30
2022-11-24T22:39:11.929Z,11.82
2022-11-24T22:41:57.283Z,11.57
2022-11-24T22:44:43.042Z,13.32
2022-11-24T22:47:28.712Z,14.18
2022-11-24T22:50:15.100Z,12.90
2022-11-24T22:53:01.043Z,12.77
2022-11-24T22:55:46.779Z,14.18
2022-11-24T22:58:34.089Z,13.90
2022-11-24T23:01:20.564Z,11.32
2022-11-24T23:04:06.417Z,10.75
2022-11-24T23:06:52.050Z,12.68
2022-11-24T23:09:37.326Z,12.45
2022-11-24T23:12:22.773Z,15.23
2022-11-24T23:15:09.300Z,12.05
2022-11-24T23:17:55.106Z,11.85
2022-11-24T23:20:40.928Z,11.52
2022-11-24T23:23:28.240Z,10.52
2022-11-24T23:26:17.916Z,11.73
2022-11-24T23:29:04.756Z,12.70
2022-11-24T23:31:50.865Z,12.77
2022-11-24T23:34:36.500Z,11.65
2022-11-24T23:37:34.326Z,12.30
2022-11-24T23:40:28.476Z,12.02
2022-11-24T23:43:14.181Z,12.48
2022-11-24T23:46:09.091Z,13.40
2022-11-24T23:48:55.388Z,14.43
2022-11-24T23:51:42.162Z,13.10
2022-11-24T23:54:27.766Z,10.50
2022-11-24T23:57:13.179Z,11.35
2022-11-24T23:59:58.529Z,12.52
